createdAt,value
2019-03-11T00:01:50.225Z,1.47
2019-03-11T00:06:43.281Z,2.07
2019-03-11T00:11:36.400Z,1.80
2019-03-11T00:16:29.887Z,2.10
2019-03-11T00:21:22.968Z,2.53
2019-03-11T00:26:16.048Z,1.57
2019-03-11T00:31:09.163Z,1.23
2019-03-11T00:36:02.262Z,1.47
2019-03-11T00:40:55.383Z,1.10
2019-03-11T00:45:48.425Z,1.00
2019-03-11T00:50:41.534Z,1.10
2019-03-11T00:55:34.639Z,1.10
2019-03-11T01:00:32.237Z,1.80
2019-03-11T01:05:25.313Z,1.60
2019-03-11T01:10:18.420Z,2.20
2019-03-11T01:15:11.574Z,2.60
2019-03-11T01:20:04.972Z,2.80
2019-03-11T01:24:59.063Z,1.77
2019-03-11T01:29:52.127Z,1.43
2019-03-11T01:34:45.279Z,2.07
2019-03-11T01:39:38.415Z,2.07
2019-03-11T01:44:31.530Z,1.50
2019-03-11T01:49:24.607Z,1.40
2019-03-11T01:54:17.672Z,0.90
2019-03-11T01:59:10.756Z,1.33
2019-03-11T02:04:03.860Z,0.90
2019-03-11T02:08:56.934Z,0.87
2019-03-11T02:13:50.008Z,0.80
2019-03-11T02:18:43.096Z,1.20
2019-03-11T02:23:36.261Z,0.87
2019-03-11T02:28:29.346Z,0.97
2019-03-11T02:33:22.461Z,1.00
2019-03-11T02:38:15.686Z,1.10
2019-03-11T02:43:08.813Z,0.80
2019-03-11T02:48:02.000Z,1.17
2019-03-11T02:52:55.117Z,1.20
2019-03-11T02:57:48.250Z,1.17
2019-03-11T03:03:06.951Z,1.20
2019-03-11T03:08:00.034Z,1.27
2019-03-11T03:12:53.116Z,1.30
2019-03-11T03:17:46.233Z,1.00
2019-03-11T03:22:39.312Z,1.40
2019-03-11T03:27:32.436Z,0.93
2019-03-11T03:32:25.504Z,0.97
2019-03-11T03:37:18.612Z,1.90
2019-03-11T03:42:13.583Z,1.60
2019-03-11T03:47:06.781Z,1.60
2019-03-11T03:51:59.890Z,1.60
2019-03-11T03:56:54.301Z,1.17
2019-03-11T04:01:47.593Z,1.50
2019-03-11T04:06:40.694Z,1.47
2019-03-11T04:11:33.767Z,1.40
2019-03-11T04:16:26.870Z,1.30
2019-03-11T04:21:20.485Z,1.37
2019-03-11T04:26:13.725Z,1.50
2019-03-11T04:31:06.829Z,1.53
2019-03-11T04:35:59.900Z,1.70
2019-03-11T04:40:53.010Z,1.70
2019-03-11T04:45:46.139Z,1.73
2019-03-11T04:50:39.526Z,1.50
2019-03-11T04:55:32.628Z,1.40
2019-03-11T05:00:27.633Z,1.10
2019-03-11T05:05:20.715Z,0.97
2019-03-11T05:10:16.124Z,0.70
2019-03-11T05:15:09.372Z,0.93
2019-03-11T05:20:03.133Z,0.87
2019-03-11T05:24:56.215Z,0.87
2019-03-11T05:29:49.262Z,0.70
2019-03-11T05:34:42.604Z,0.97
2019-03-11T05:39:35.744Z,0.87
2019-03-11T05:44:28.786Z,1.10
2019-03-11T05:49:21.883Z,1.13
2019-03-11T05:54:15.030Z,1.30
2019-03-11T05:59:08.189Z,1.27
2019-03-11T06:04:01.302Z,1.60
2019-03-11T06:08:54.438Z,1.10
2019-03-11T06:13:47.544Z,0.90
2019-03-11T06:18:47.514Z,1.13
2019-03-11T06:23:41.599Z,1.17
2019-03-11T06:28:34.690Z,1.40
2019-03-11T06:33:27.740Z,1.10
2019-03-11T06:38:20.842Z,2.13
2019-03-11T06:43:14.009Z,2.10
2019-03-11T06:48:07.107Z,1.87
2019-03-11T06:53:00.227Z,1.30
2019-03-11T06:57:53.776Z,1.60
2019-03-11T07:02:47.050Z,1.40
2019-03-11T07:07:40.192Z,1.50
2019-03-11T07:12:33.271Z,1.70
2019-03-11T07:17:26.387Z,1.50
2019-03-11T07:22:19.479Z,1.70
2019-03-11T07:27:12.564Z,1.40
2019-03-11T07:32:05.702Z,2.50
2019-03-11T07:36:58.785Z,1.17
2019-03-11T07:41:51.916Z,1.60
2019-03-11T07:46:45.726Z,1.23
2019-03-11T07:51:39.098Z,1.10
2019-03-11T07:56:32.227Z,1.20
2019-03-11T08:01:25.384Z,1.17
2019-03-11T08:06:19.173Z,1.07
2019-03-11T08:11:12.344Z,1.00
2019-03-11T08:16:05.478Z,1.20
2019-03-11T08:20:58.594Z,1.40
2019-03-11T08:25:51.714Z,1.17
2019-03-11T08:30:44.816Z,1.10
2019-03-11T08:35:37.908Z,1.60
2019-03-11T08:40:31.382Z,1.10
2019-03-11T08:45:24.487Z,1.30
2019-03-11T08:50:23.759Z,1.40
2019-03-11T08:55:16.876Z,1.57
2019-03-11T09:00:10.452Z,1.57
2019-03-11T09:05:05.304Z,1.83
2019-03-11T09:09:58.534Z,2.60
2019-03-11T09:14:51.601Z,2.10
2019-03-11T09:19:44.695Z,1.90
2019-03-11T09:24:37.782Z,2.30
2019-03-11T09:29:30.879Z,2.00
2019-03-11T09:34:23.952Z,2.27
2019-03-11T09:39:17.041Z,2.43
2019-03-11T09:44:10.194Z,1.97
2019-03-11T09:49:03.303Z,1.97
2019-03-11T09:53:56.361Z,2.10
2019-03-11T09:58:49.463Z,2.20
2019-03-11T10:03:43.002Z,1.80
2019-03-11T10:08:36.099Z,1.90
2019-03-11T10:13:29.162Z,2.60
2019-03-11T10:18:22.248Z,2.67
2019-03-11T10:23:15.357Z,2.47
2019-03-11T10:28:08.568Z,2.67
2019-03-11T10:33:02.115Z,2.17
2019-03-11T10:37:55.221Z,1.73
2019-03-11T10:42:48.389Z,2.03
2019-03-11T10:47:42.754Z,2.23
2019-03-11T10:52:35.878Z,2.10
2019-03-11T10:57:28.967Z,2.20
2019-03-11T11:02:22.579Z,2.30
2019-03-11T11:07:16.346Z,2.80
2019-03-11T11:12:09.440Z,2.33
2019-03-11T11:17:02.535Z,2.80
2019-03-11T11:21:55.626Z,2.70
2019-03-11T11:26:48.692Z,3.10
2019-03-11T11:31:41.812Z,3.27
2019-03-11T11:36:35.291Z,3.07
2019-03-11T11:41:28.621Z,2.87
2019-03-11T11:46:21.715Z,3.10
2019-03-11T11:51:14.824Z,2.20
2019-03-11T11:56:07.945Z,2.00
2019-03-11T12:01:01.032Z,1.90
2019-03-11T12:05:54.091Z,1.60
2019-03-11T12:10:47.192Z,1.93
2019-03-11T12:15:40.264Z,2.83
2019-03-11T12:20:33.544Z,2.10
2019-03-11T12:25:26.756Z,2.17
2019-03-11T12:30:22.341Z,1.57
2019-03-11T12:35:15.555Z,1.40
2019-03-11T12:40:09.761Z,1.30
2019-03-11T12:45:03.391Z,1.50
2019-03-11T12:49:56.570Z,1.50
2019-03-11T12:54:49.693Z,1.70
2019-03-11T12:59:43.903Z,1.20
2019-03-11T13:04:37.600Z,1.40
2019-03-11T13:09:30.918Z,1.17
2019-03-11T13:14:24.217Z,1.50
2019-03-11T13:19:17.410Z,1.10
2019-03-11T13:24:10.656Z,1.20
2019-03-11T13:29:03.997Z,1.70
2019-03-11T13:33:57.203Z,1.37
2019-03-11T13:38:50.425Z,1.63
2019-03-11T13:43:43.612Z,1.43
2019-03-11T13:48:37.002Z,1.50
2019-03-11T13:53:30.480Z,1.20
2019-03-11T13:58:23.675Z,1.50
2019-03-11T14:03:16.866Z,1.37
2019-03-11T14:08:10.522Z,1.30
2019-03-11T14:13:03.687Z,1.10
2019-03-11T14:17:56.907Z,1.40
2019-03-11T14:22:50.065Z,1.20
2019-03-11T14:27:43.336Z,1.67
2019-03-11T14:32:36.556Z,1.20
2019-03-11T14:37:29.746Z,1.30
2019-03-11T14:42:22.968Z,1.70
2019-03-11T14:47:16.042Z,1.47
2019-03-11T14:52:09.161Z,2.03
2019-03-11T14:57:02.457Z,1.47
2019-03-11T15:01:55.663Z,1.60
2019-03-11T15:06:48.721Z,1.40
2019-03-11T15:11:41.857Z,1.40
2019-03-11T15:16:34.977Z,1.57
2019-03-11T15:21:28.190Z,1.43
2019-03-11T15:26:25.172Z,1.70
2019-03-11T15:31:16.689Z,1.70
2019-03-11T15:36:09.975Z,1.80
2019-03-11T15:41:03.186Z,1.50
2019-03-11T15:45:56.355Z,1.87
2019-03-11T15:50:49.550Z,1.70
2019-03-11T15:55:44.692Z,1.57
2019-03-11T16:00:37.871Z,1.30
2019-03-11T16:05:31.098Z,1.63
2019-03-11T16:10:24.315Z,1.57
2019-03-11T16:15:17.942Z,1.60
2019-03-11T16:20:12.729Z,1.67
2019-03-11T16:25:07.444Z,1.47
2019-03-11T16:30:00.723Z,1.60
2019-03-11T16:34:53.960Z,1.47
2019-03-11T16:39:47.141Z,1.30
2019-03-11T16:44:40.365Z,1.80
2019-03-11T16:49:33.464Z,1.20
2019-03-11T16:54:26.957Z,1.30
2019-03-11T16:59:20.127Z,1.43
2019-03-11T17:04:13.404Z,1.30
2019-03-11T17:09:08.393Z,1.30
2019-03-11T17:14:01.495Z,1.70
2019-03-11T17:18:54.592Z,2.00
2019-03-11T17:23:47.662Z,1.60
2019-03-11T17:28:40.771Z,1.40
2019-03-11T17:33:34.312Z,1.80
2019-03-11T17:38:27.390Z,1.60
2019-03-11T17:43:20.463Z,1.90
2019-03-11T17:48:13.589Z,1.93
2019-03-11T17:53:06.674Z,1.73
2019-03-11T17:57:59.790Z,2.30
2019-03-11T18:02:52.989Z,1.90
2019-03-11T18:07:46.128Z,1.67
2019-03-11T18:12:39.242Z,2.57
2019-03-11T18:17:32.355Z,1.77
2019-03-11T18:22:25.479Z,1.53
2019-03-11T18:27:18.558Z,1.80
2019-03-11T18:32:11.813Z,1.77
2019-03-11T18:37:04.957Z,1.67
2019-03-11T18:41:58.289Z,2.30
2019-03-11T18:46:51.496Z,1.77
2019-03-11T18:51:44.664Z,1.90
2019-03-11T18:56:37.789Z,2.50
2019-03-11T19:01:30.903Z,1.90
2019-03-11T19:06:23.954Z,1.57
2019-03-11T19:11:17.145Z,2.20
2019-03-11T19:16:10.311Z,1.87
2019-03-11T19:21:03.743Z,1.87
2019-03-11T19:25:56.838Z,1.40
2019-03-11T19:30:49.913Z,1.93
2019-03-11T19:35:43.033Z,1.63
2019-03-11T19:40:36.106Z,2.37
2019-03-11T19:45:29.241Z,1.67
2019-03-11T19:50:22.454Z,1.63
2019-03-11T19:55:15.693Z,1.80
2019-03-11T20:00:12.501Z,1.77
2019-03-11T20:05:07.095Z,1.50
2019-03-11T20:10:00.380Z,2.37
2019-03-11T20:14:53.554Z,1.87
2019-03-11T20:19:46.688Z,2.10
2019-03-11T20:24:39.865Z,1.90
2019-03-11T20:29:34.071Z,4.23
2019-03-11T20:34:27.581Z,1.70
2019-03-11T20:39:20.788Z,1.63
2019-03-11T20:44:13.901Z,2.03
2019-03-11T20:49:07.001Z,2.30
2019-03-11T20:54:00.091Z,2.23
2019-03-11T20:58:53.281Z,1.83
2019-03-11T21:03:46.375Z,2.33
2019-03-11T21:08:39.516Z,2.10
2019-03-11T21:13:32.735Z,2.13
2019-03-11T21:18:26.808Z,2.33
2019-03-11T21:23:19.966Z,2.30
2019-03-11T21:28:13.211Z,2.23
2019-03-11T21:33:06.490Z,2.80
2019-03-11T21:37:59.730Z,2.33
2019-03-11T21:42:52.883Z,2.40
2019-03-11T21:47:45.984Z,2.30
2019-03-11T21:52:39.157Z,2.10
2019-03-11T21:57:32.239Z,2.20
2019-03-11T22:02:25.415Z,1.97
2019-03-11T22:07:18.502Z,2.00
2019-03-11T22:12:11.620Z,2.70
2019-03-11T22:17:04.845Z,2.30
2019-03-11T22:21:58.465Z,2.50
2019-03-11T22:26:51.985Z,2.47
2019-03-11T22:31:45.719Z,2.47
2019-03-11T22:36:39.322Z,2.10
2019-03-11T22:41:32.430Z,2.23
2019-03-11T22:46:25.617Z,2.47
2019-03-11T22:51:18.729Z,3.07
2019-03-11T22:56:11.852Z,2.23
2019-03-11T23:01:06.142Z,2.60
2019-03-11T23:05:59.245Z,2.40
2019-03-11T23:10:52.655Z,3.10
2019-03-11T23:15:45.864Z,2.13
2019-03-11T23:20:39.398Z,2.67
2019-03-11T23:25:32.522Z,3.10
2019-03-11T23:30:26.160Z,3.03
2019-03-11T23:35:20.567Z,2.87
2019-03-11T23:40:14.035Z,3.30
2019-03-11T23:45:07.729Z,3.03
2019-03-11T23:50:01.086Z,2.93
2019-03-11T23:54:55.173Z,2.77
2019-03-11T23:59:49.222Z,3.50
